sensor_id;sensor_type;location;lat;lon;timestamp;P1;durP1;ratioP1;P2;durP2;ratioP2
12597;SDS011;6364;53.590;9.956;2023-08-08T00:01:02;12.55;;;2.90;;
12597;SDS011;6364;53.590;9.956;2023-08-08T00:03:27;4.47;;;2.35;;
12597;SDS011;6364;53.590;9.956;2023-08-08T00:05:53;12.60;;;2.70;;
12597;SDS011;6364;53.590;9.956;2023-08-08T00:08:25;11.63;;;3.33;;
12597;SDS011;6364;53.590;9.956;2023-08-08T00:10:53;7.68;;;2.60;;
12597;SDS011;6364;53.590;9.956;2023-08-08T00:13:19;6.53;;;2.45;;
12597;SDS011;6364;53.590;9.956;2023-08-08T00:15:48;7.75;;;2.17;;
12597;SDS011;6364;53.590;9.956;2023-08-08T00:18:13;9.55;;;2.72;;
12597;SDS011;6364;53.590;9.956;2023-08-08T00:20:39;9.02;;;3.10;;
12597;SDS011;6364;53.590;9.956;2023-08-08T00:23:05;5.97;;;2.55;;
12597;SDS011;6364;53.590;9.956;2023-08-08T00:25:36;8.77;;;3.25;;
12597;SDS011;6364;53.590;9.956;2023-08-08T00:28:04;9.50;;;2.70;;
12597;SDS011;6364;53.590;9.956;2023-08-08T00:30:35;9.48;;;3.15;;
12597;SDS011;6364;53.590;9.956;2023-08-08T00:33:01;7.95;;;2.75;;
12597;SDS011;6364;53.590;9.956;2023-08-08T00:35:26;9.10;;;3.00;;
12597;SDS011;6364;53.590;9.956;2023-08-08T00:37:54;8.98;;;2.72;;
12597;SDS011;6364;53.590;9.956;2023-08-08T00:40:23;11.80;;;2.85;;
12597;SDS011;6364;53.590;9.956;2023-08-08T00:42:50;7.28;;;2.90;;
12597;SDS011;6364;53.590;9.956;2023-08-08T00:45:19;11.23;;;2.65;;
12597;SDS011;6364;53.590;9.956;2023-08-08T00:47:50;10.95;;;3.15;;
12597;SDS011;6364;53.590;9.956;2023-08-08T00:50:20;5.78;;;3.00;;
12597;SDS011;6364;53.590;9.956;2023-08-08T00:52:51;8.55;;;2.95;;
12597;SDS011;6364;53.590;9.956;2023-08-08T00:55:17;6.85;;;3.00;;
12597;SDS011;6364;53.590;9.956;2023-08-08T00:57:42;6.50;;;3.05;;
12597;SDS011;6364;53.590;9.956;2023-08-08T01:00:08;7.20;;;2.67;;
12597;SDS011;6364;53.590;9.956;2023-08-08T01:02:35;7.05;;;2.85;;
12597;SDS011;6364;53.590;9.956;2023-08-08T01:05:01;6.97;;;2.85;;
12597;SDS011;6364;53.590;9.956;2023-08-08T01:10:09;8.68;;;2.63;;
12597;SDS011;6364;53.590;9.956;2023-08-08T01:12:45;4.60;;;3.00;;
12597;SDS011;6364;53.590;9.956;2023-08-08T01:15:15;5.35;;;2.78;;
12597;SDS011;6364;53.590;9.956;2023-08-08T01:17:41;8.52;;;2.90;;
12597;SDS011;6364;53.590;9.956;2023-08-08T01:20:08;8.30;;;3.55;;
12597;SDS011;6364;53.590;9.956;2023-08-08T01:22:39;5.35;;;2.53;;
12597;SDS011;6364;53.590;9.956;2023-08-08T01:25:08;9.88;;;2.97;;
12597;SDS011;6364;53.590;9.956;2023-08-08T01:27:35;5.78;;;2.70;;
12597;SDS011;6364;53.590;9.956;2023-08-08T01:30:03;5.90;;;2.75;;
12597;SDS011;6364;53.590;9.956;2023-08-08T01:32:32;5.80;;;3.03;;
12597;SDS011;6364;53.590;9.956;2023-08-08T01:34:58;9.60;;;2.80;;
12597;SDS011;6364;53.590;9.956;2023-08-08T01:37:29;13.30;;;2.63;;
12597;SDS011;6364;53.590;9.956;2023-08-08T01:40:05;6.13;;;2.50;;
12597;SDS011;6364;53.590;9.956;2023-08-08T01:42:34;8.02;;;2.58;;
12597;SDS011;6364;53.590;9.956;2023-08-08T01:45:02;6.05;;;2.50;;
12597;SDS011;6364;53.590;9.956;2023-08-08T01:47:33;9.43;;;2.60;;
12597;SDS011;6364;53.590;9.956;2023-08-08T01:50:04;6.22;;;2.60;;
12597;SDS011;6364;53.590;9.956;2023-08-08T01:52:33;6.43;;;2.88;;
12597;SDS011;6364;53.590;9.956;2023-08-08T01:55:01;7.85;;;2.47;;
12597;SDS011;6364;53.590;9.956;2023-08-08T01:57:29;4.13;;;2.13;;
12597;SDS011;6364;53.590;9.956;2023-08-08T01:59:57;4.85;;;2.17;;
12597;SDS011;6364;53.590;9.956;2023-08-08T02:02:25;3.80;;;2.35;;
12597;SDS011;6364;53.590;9.956;2023-08-08T02:04:50;3.38;;;2.17;;
12597;SDS011;6364;53.590;9.956;2023-08-08T02:07:19;10.75;;;2.63;;
12597;SDS011;6364;53.590;9.956;2023-08-08T02:09:47;11.30;;;2.28;;
12597;SDS011;6364;53.590;9.956;2023-08-08T02:12:15;4.93;;;2.33;;
12597;SDS011;6364;53.590;9.956;2023-08-08T02:14:41;7.05;;;2.58;;
12597;SDS011;6364;53.590;9.956;2023-08-08T02:17:07;5.95;;;2.03;;
12597;SDS011;6364;53.590;9.956;2023-08-08T02:19:32;7.43;;;1.92;;
12597;SDS011;6364;53.590;9.956;2023-08-08T02:22:01;7.25;;;1.95;;
12597;SDS011;6364;53.590;9.956;2023-08-08T02:24:31;8.80;;;1.80;;
12597;SDS011;6364;53.590;9.956;2023-08-08T02:26:59;5.97;;;1.80;;
12597;SDS011;6364;53.590;9.956;2023-08-08T02:29:31;5.47;;;1.63;;
12597;SDS011;6364;53.590;9.956;2023-08-08T02:31:56;5.60;;;2.40;;
12597;SDS011;6364;53.590;9.956;2023-08-08T02:34:22;4.35;;;1.80;;
12597;SDS011;6364;53.590;9.956;2023-08-08T02:36:53;3.88;;;1.90;;
12597;SDS011;6364;53.590;9.956;2023-08-08T02:39:23;6.57;;;2.00;;
12597;SDS011;6364;53.590;9.956;2023-08-08T02:41:49;4.53;;;1.58;;
12597;SDS011;6364;53.590;9.956;2023-08-08T02:44:17;7.15;;;1.63;;
12597;SDS011;6364;53.590;9.956;2023-08-08T02:46:44;5.20;;;1.85;;
12597;SDS011;6364;53.590;9.956;2023-08-08T02:49:10;6.78;;;2.50;;
12597;SDS011;6364;53.590;9.956;2023-08-08T02:51:36;8.18;;;1.83;;
12597;SDS011;6364;53.590;9.956;2023-08-08T02:54:07;4.60;;;1.80;;
12597;SDS011;6364;53.590;9.956;2023-08-08T02:56:32;2.47;;;1.45;;
12597;SDS011;6364;53.590;9.956;2023-08-08T02:59:01;7.20;;;1.85;;
12597;SDS011;6364;53.590;9.956;2023-08-08T03:01:26;2.75;;;1.73;;
12597;SDS011;6364;53.590;9.956;2023-08-08T03:03:52;5.25;;;1.80;;
12597;SDS011;6364;53.590;9.956;2023-08-08T03:06:18;4.57;;;1.70;;
12597;SDS011;6364;53.590;9.956;2023-08-08T03:08:47;4.93;;;2.17;;
12597;SDS011;6364;53.590;9.956;2023-08-08T03:11:15;7.47;;;1.80;;
12597;SDS011;6364;53.590;9.956;2023-08-08T03:13:46;4.40;;;2.03;;
12597;SDS011;6364;53.590;9.956;2023-08-08T03:16:17;6.68;;;1.77;;
12597;SDS011;6364;53.590;9.956;2023-08-08T03:18:44;6.25;;;1.73;;
12597;SDS011;6364;53.590;9.956;2023-08-08T03:21:10;5.38;;;1.83;;
12597;SDS011;6364;53.590;9.956;2023-08-08T03:23:39;8.27;;;2.05;;
12597;SDS011;6364;53.590;9.956;2023-08-08T03:26:04;4.25;;;1.75;;
12597;SDS011;6364;53.590;9.956;2023-08-08T03:28:33;6.45;;;2.05;;
12597;SDS011;6364;53.590;9.956;2023-08-08T03:31:01;6.57;;;2.08;;
12597;SDS011;6364;53.590;9.956;2023-08-08T03:33:28;7.70;;;1.90;;
12597;SDS011;6364;53.590;9.956;2023-08-08T03:35:56;6.18;;;1.80;;
12597;SDS011;6364;53.590;9.956;2023-08-08T03:38:22;6.05;;;2.00;;
12597;SDS011;6364;53.590;9.956;2023-08-08T03:40:50;5.07;;;1.92;;
12597;SDS011;6364;53.590;9.956;2023-08-08T03:43:22;5.82;;;1.58;;
12597;SDS011;6364;53.590;9.956;2023-08-08T03:45:47;5.15;;;2.22;;
12597;SDS011;6364;53.590;9.956;2023-08-08T03:48:16;6.40;;;2.25;;
12597;SDS011;6364;53.590;9.956;2023-08-08T03:50:42;2.78;;;1.75;;
12597;SDS011;6364;53.590;9.956;2023-08-08T03:53:08;3.58;;;1.73;;
12597;SDS011;6364;53.590;9.956;2023-08-08T03:55:33;4.38;;;1.80;;
12597;SDS011;6364;53.590;9.956;2023-08-08T03:58:02;5.25;;;1.73;;
12597;SDS011;6364;53.590;9.956;2023-08-08T04:00:28;5.05;;;1.83;;
12597;SDS011;6364;53.590;9.956;2023-08-08T04:02:53;7.18;;;2.22;;
12597;SDS011;6364;53.590;9.956;2023-08-08T04:05:22;6.07;;;1.77;;
12597;SDS011;6364;53.590;9.956;2023-08-08T04:07:52;4.55;;;1.70;;
12597;SDS011;6364;53.590;9.956;2023-08-08T04:10:23;5.97;;;1.98;;
12597;SDS011;6364;53.590;9.956;2023-08-08T04:12:49;7.55;;;1.88;;
12597;SDS011;6364;53.590;9.956;2023-08-08T04:15:15;6.53;;;2.00;;
12597;SDS011;6364;53.590;9.956;2023-08-08T04:17:40;9.40;;;2.35;;
12597;SDS011;6364;53.590;9.956;2023-08-08T04:20:06;6.93;;;2.08;;
12597;SDS011;6364;53.590;9.956;2023-08-08T04:22:35;5.68;;;2.25;;
12597;SDS011;6364;53.590;9.956;2023-08-08T04:25:03;4.60;;;1.75;;
12597;SDS011;6364;53.590;9.956;2023-08-08T04:27:36;3.40;;;2.03;;
12597;SDS011;6364;53.590;9.956;2023-08-08T04:30:01;6.80;;;1.90;;
12597;SDS011;6364;53.590;9.956;2023-08-08T04:32:28;4.10;;;1.85;;
12597;SDS011;6364;53.590;9.956;2023-08-08T04:34:59;3.95;;;1.63;;
12597;SDS011;6364;53.590;9.956;2023-08-08T04:37:24;5.57;;;1.67;;
12597;SDS011;6364;53.590;9.956;2023-08-08T04:39:52;8.32;;;1.73;;
12597;SDS011;6364;53.590;9.956;2023-08-08T04:42:21;1.83;;;1.40;;
12597;SDS011;6364;53.590;9.956;2023-08-08T04:44:49;5.00;;;1.80;;
12597;SDS011;6364;53.590;9.956;2023-08-08T04:47:17;3.83;;;1.88;;
12597;SDS011;6364;53.590;9.956;2023-08-08T04:49:45;4.18;;;1.70;;
12597;SDS011;6364;53.590;9.956;2023-08-08T04:52:11;3.22;;;1.50;;
12597;SDS011;6364;53.590;9.956;2023-08-08T04:54:36;5.18;;;1.58;;
12597;SDS011;6364;53.590;9.956;2023-08-08T04:57:07;4.63;;;1.73;;
12597;SDS011;6364;53.590;9.956;2023-08-08T04:59:35;6.18;;;1.90;;
12597;SDS011;6364;53.590;9.956;2023-08-08T05:02:03;5.43;;;1.80;;
12597;SDS011;6364;53.590;9.956;2023-08-08T05:04:34;4.25;;;1.52;;
12597;SDS011;6364;53.590;9.956;2023-08-08T05:07:02;4.05;;;1.58;;
12597;SDS011;6364;53.590;9.956;2023-08-08T05:09:31;2.95;;;1.70;;
12597;SDS011;6364;53.590;9.956;2023-08-08T05:12:00;3.53;;;1.77;;
12597;SDS011;6364;53.590;9.956;2023-08-08T05:14:25;2.97;;;1.50;;
12597;SDS011;6364;53.590;9.956;2023-08-08T05:16:53;5.03;;;1.80;;
12597;SDS011;6364;53.590;9.956;2023-08-08T05:19:21;4.43;;;1.73;;
12597;SDS011;6364;53.590;9.956;2023-08-08T05:21:53;3.28;;;1.60;;
12597;SDS011;6364;53.590;9.956;2023-08-08T05:24:21;4.85;;;1.50;;
12597;SDS011;6364;53.590;9.956;2023-08-08T05:26:49;3.70;;;1.42;;
12597;SDS011;6364;53.590;9.956;2023-08-08T05:29:18;3.63;;;1.48;;
12597;SDS011;6364;53.590;9.956;2023-08-08T05:31:45;6.35;;;2.03;;
12597;SDS011;6364;53.590;9.956;2023-08-08T05:34:31;4.43;;;1.55;;
12597;SDS011;6364;53.590;9.956;2023-08-08T05:37:01;3.42;;;1.40;;
12597;SDS011;6364;53.590;9.956;2023-08-08T05:39:35;3.00;;;1.42;;
12597;SDS011;6364;53.590;9.956;2023-08-08T05:42:03;3.30;;;1.42;;
12597;SDS011;6364;53.590;9.956;2023-08-08T05:44:29;5.13;;;1.42;;
12597;SDS011;6364;53.590;9.956;2023-08-08T05:46:59;5.32;;;1.65;;
12597;SDS011;6364;53.590;9.956;2023-08-08T05:49:25;6.97;;;1.92;;
12597;SDS011;6364;53.590;9.956;2023-08-08T05:51:54;4.25;;;1.40;;
12597;SDS011;6364;53.590;9.956;2023-08-08T05:54:30;6.00;;;1.80;;
12597;SDS011;6364;53.590;9.956;2023-08-08T05:56:56;7.07;;;1.70;;
12597;SDS011;6364;53.590;9.956;2023-08-08T05:59:24;4.95;;;1.60;;
12597;SDS011;6364;53.590;9.956;2023-08-08T06:01:53;4.30;;;1.33;;
12597;SDS011;6364;53.590;9.956;2023-08-08T06:04:21;3.92;;;1.60;;
12597;SDS011;6364;53.590;9.956;2023-08-08T06:06:49;3.45;;;1.65;;
12597;SDS011;6364;53.590;9.956;2023-08-08T06:09:20;6.28;;;1.88;;
12597;SDS011;6364;53.590;9.956;2023-08-08T06:11:46;9.32;;;1.80;;
12597;SDS011;6364;53.590;9.956;2023-08-08T06:14:14;5.55;;;1.88;;
12597;SDS011;6364;53.590;9.956;2023-08-08T06:16:41;3.78;;;1.63;;
12597;SDS011;6364;53.590;9.956;2023-08-08T06:19:06;5.60;;;1.95;;
12597;SDS011;6364;53.590;9.956;2023-08-08T06:21:34;4.60;;;2.05;;
12597;SDS011;6364;53.590;9.956;2023-08-08T06:24:03;3.65;;;1.90;;
12597;SDS011;6364;53.590;9.956;2023-08-08T06:26:28;5.53;;;1.85;;
12597;SDS011;6364;53.590;9.956;2023-08-08T06:28:54;6.00;;;2.00;;
12597;SDS011;6364;53.590;9.956;2023-08-08T06:31:19;6.55;;;1.92;;
12597;SDS011;6364;53.590;9.956;2023-08-08T06:33:48;4.60;;;2.17;;
12597;SDS011;6364;53.590;9.956;2023-08-08T06:36:18;4.63;;;1.95;;
12597;SDS011;6364;53.590;9.956;2023-08-08T06:38:46;5.78;;;2.33;;
12597;SDS011;6364;53.590;9.956;2023-08-08T06:41:12;7.28;;;2.38;;
12597;SDS011;6364;53.590;9.956;2023-08-08T06:43:42;4.85;;;1.70;;
12597;SDS011;6364;53.590;9.956;2023-08-08T06:46:11;6.28;;;1.83;;
12597;SDS011;6364;53.590;9.956;2023-08-08T06:48:42;7.38;;;1.98;;
12597;SDS011;6364;53.590;9.956;2023-08-08T06:51:11;4.25;;;2.05;;
12597;SDS011;6364;53.590;9.956;2023-08-08T06:53:42;7.45;;;2.03;;
12597;SDS011;6364;53.590;9.956;2023-08-08T06:56:10;6.82;;;2.10;;
12597;SDS011;6364;53.590;9.956;2023-08-08T06:58:35;3.85;;;1.70;;
12597;SDS011;6364;53.590;9.956;2023-08-08T07:01:01;6.38;;;1.88;;
12597;SDS011;6364;53.590;9.956;2023-08-08T07:03:27;4.28;;;1.90;;
12597;SDS011;6364;53.590;9.956;2023-08-08T07:05:53;5.40;;;1.80;;
12597;SDS011;6364;53.590;9.956;2023-08-08T07:08:25;4.07;;;1.80;;
12597;SDS011;6364;53.590;9.956;2023-08-08T07:11:01;6.75;;;1.83;;
12597;SDS011;6364;53.590;9.956;2023-08-08T07:13:27;9.45;;;2.00;;
12597;SDS011;6364;53.590;9.956;2023-08-08T07:15:57;4.88;;;1.55;;
12597;SDS011;6364;53.590;9.956;2023-08-08T07:18:28;3.83;;;1.52;;
12597;SDS011;6364;53.590;9.956;2023-08-08T07:20:54;6.72;;;1.50;;
12597;SDS011;6364;53.590;9.956;2023-08-08T07:23:25;4.55;;;1.40;;
12597;SDS011;6364;53.590;9.956;2023-08-08T07:25:54;7.07;;;1.60;;
12597;SDS011;6364;53.590;9.956;2023-08-08T07:28:24;4.80;;;1.55;;
12597;SDS011;6364;53.590;9.956;2023-08-08T07:30:49;2.75;;;1.35;;
12597;SDS011;6364;53.590;9.956;2023-08-08T07:33:23;2.53;;;1.17;;
12597;SDS011;6364;53.590;9.956;2023-08-08T07:35:57;3.78;;;1.23;;
12597;SDS011;6364;53.590;9.956;2023-08-08T07:38:25;4.15;;;1.67;;
12597;SDS011;6364;53.590;9.956;2023-08-08T07:40:53;4.80;;;1.40;;
12597;SDS011;6364;53.590;9.956;2023-08-08T07:49:39;6.22;;;1.55;;
12597;SDS011;6364;53.590;9.956;2023-08-08T07:52:07;6.30;;;1.65;;
12597;SDS011;6364;53.590;9.956;2023-08-08T07:54:38;8.77;;;2.08;;
12597;SDS011;6364;53.590;9.956;2023-08-08T07:57:12;4.45;;;1.60;;
12597;SDS011;6364;53.590;9.956;2023-08-08T07:59:42;5.78;;;1.65;;
12597;SDS011;6364;53.590;9.956;2023-08-08T08:02:16;6.97;;;2.00;;
12597;SDS011;6364;53.590;9.956;2023-08-08T08:04:44;4.20;;;1.90;;
12597;SDS011;6364;53.590;9.956;2023-08-08T08:07:15;11.57;;;2.30;;
12597;SDS011;6364;53.590;9.956;2023-08-08T08:09:46;5.18;;;2.00;;
12597;SDS011;6364;53.590;9.956;2023-08-08T08:12:15;7.43;;;2.00;;
12597;SDS011;6364;53.590;9.956;2023-08-08T08:14:48;5.28;;;1.63;;
12597;SDS011;6364;53.590;9.956;2023-08-08T08:17:13;4.63;;;2.03;;
12597;SDS011;6364;53.590;9.956;2023-08-08T08:19:42;6.15;;;2.33;;
12597;SDS011;6364;53.590;9.956;2023-08-08T08:22:08;8.68;;;2.00;;
12597;SDS011;6364;53.590;9.956;2023-08-08T08:24:41;5.78;;;1.70;;
12597;SDS011;6364;53.590;9.956;2023-08-08T08:27:10;4.18;;;1.83;;
12597;SDS011;6364;53.590;9.956;2023-08-08T08:29:35;4.55;;;1.73;;
12597;SDS011;6364;53.590;9.956;2023-08-08T08:32:07;7.22;;;1.90;;
12597;SDS011;6364;53.590;9.956;2023-08-08T08:34:36;4.72;;;1.83;;
12597;SDS011;6364;53.590;9.956;2023-08-08T08:37:09;4.50;;;1.65;;
12597;SDS011;6364;53.590;9.956;2023-08-08T08:39:37;3.08;;;1.58;;
12597;SDS011;6364;53.590;9.956;2023-08-08T08:42:03;6.80;;;1.40;;
12597;SDS011;6364;53.590;9.956;2023-08-08T08:44:35;2.25;;;1.20;;
12597;SDS011;6364;53.590;9.956;2023-08-08T08:47:03;6.32;;;1.50;;
12597;SDS011;6364;53.590;9.956;2023-08-08T08:49:30;4.25;;;1.20;;
12597;SDS011;6364;53.590;9.956;2023-08-08T08:51:57;5.00;;;1.30;;
12597;SDS011;6364;53.590;9.956;2023-08-08T08:54:32;2.72;;;1.30;;
12597;SDS011;6364;53.590;9.956;2023-08-08T08:57:01;2.25;;;0.95;;
12597;SDS011;6364;53.590;9.956;2023-08-08T08:59:29;5.20;;;1.45;;
12597;SDS011;6364;53.590;9.956;2023-08-08T09:01:59;4.32;;;1.30;;
12597;SDS011;6364;53.590;9.956;2023-08-08T09:04:27;4.28;;;1.40;;
12597;SDS011;6364;53.590;9.956;2023-08-08T09:06:56;4.00;;;1.10;;
12597;SDS011;6364;53.590;9.956;2023-08-08T09:09:26;4.75;;;1.40;;
12597;SDS011;6364;53.590;9.956;2023-08-08T09:12:02;5.25;;;1.20;;
12597;SDS011;6364;53.590;9.956;2023-08-08T09:14:33;1.30;;;0.88;;
12597;SDS011;6364;53.590;9.956;2023-08-08T09:17:00;4.15;;;1.27;;
12597;SDS011;6364;53.590;9.956;2023-08-08T09:19:28;5.72;;;1.83;;
12597;SDS011;6364;53.590;9.956;2023-08-08T09:21:54;4.68;;;1.30;;
12597;SDS011;6364;53.590;9.956;2023-08-08T09:24:19;5.53;;;1.45;;
12597;SDS011;6364;53.590;9.956;2023-08-08T09:26:51;5.00;;;1.30;;
12597;SDS011;6364;53.590;9.956;2023-08-08T09:29:22;5.43;;;1.45;;
12597;SDS011;6364;53.590;9.956;2023-08-08T09:34:18;3.25;;;1.08;;
12597;SDS011;6364;53.590;9.956;2023-08-08T09:36:49;4.82;;;1.35;;
12597;SDS011;6364;53.590;9.956;2023-08-08T09:39:16;6.63;;;1.30;;
12597;SDS011;6364;53.590;9.956;2023-08-08T09:41:41;5.18;;;1.48;;
12597;SDS011;6364;53.590;9.956;2023-08-08T09:44:07;3.80;;;1.30;;
12597;SDS011;6364;53.590;9.956;2023-08-08T09:46:33;5.85;;;1.38;;
12597;SDS011;6364;53.590;9.956;2023-08-08T09:49:00;3.85;;;1.40;;
12597;SDS011;6364;53.590;9.956;2023-08-08T09:51:26;8.63;;;1.88;;
12597;SDS011;6364;53.590;9.956;2023-08-08T09:53:52;5.43;;;1.20;;
12597;SDS011;6364;53.590;9.956;2023-08-08T09:56:18;4.28;;;1.42;;
12597;SDS011;6364;53.590;9.956;2023-08-08T09:58:44;3.70;;;1.38;;
12597;SDS011;6364;53.590;9.956;2023-08-08T10:01:11;4.05;;;1.50;;
12597;SDS011;6364;53.590;9.956;2023-08-08T10:03:38;6.05;;;1.98;;
12597;SDS011;6364;53.590;9.956;2023-08-08T10:06:03;7.95;;;1.65;;
12597;SDS011;6364;53.590;9.956;2023-08-08T10:08:28;1.77;;;1.17;;
12597;SDS011;6364;53.590;9.956;2023-08-08T10:10:55;4.93;;;1.48;;
12597;SDS011;6364;53.590;9.956;2023-08-08T10:13:21;7.80;;;1.45;;
12597;SDS011;6364;53.590;9.956;2023-08-08T10:15:47;3.75;;;1.90;;
12597;SDS011;6364;53.590;9.956;2023-08-08T10:18:13;4.03;;;1.80;;
12597;SDS011;6364;53.590;9.956;2023-08-08T10:20:39;3.67;;;1.70;;
12597;SDS011;6364;53.590;9.956;2023-08-08T10:23:07;3.33;;;1.42;;
12597;SDS011;6364;53.590;9.956;2023-08-08T10:25:32;5.35;;;1.83;;
12597;SDS011;6364;53.590;9.956;2023-08-08T10:28:05;4.97;;;1.45;;
12597;SDS011;6364;53.590;9.956;2023-08-08T10:30:45;5.60;;;1.52;;
12597;SDS011;6364;53.590;9.956;2023-08-08T10:33:18;2.85;;;1.73;;
12597;SDS011;6364;53.590;9.956;2023-08-08T10:36:01;5.43;;;1.60;;
12597;SDS011;6364;53.590;9.956;2023-08-08T10:41:30;10.25;;;1.80;;
12597;SDS011;6364;53.590;9.956;2023-08-08T10:43:56;6.53;;;1.65;;
12597;SDS011;6364;53.590;9.956;2023-08-08T10:46:31;5.35;;;1.77;;
12597;SDS011;6364;53.590;9.956;2023-08-08T10:48:59;7.30;;;1.75;;
12597;SDS011;6364;53.590;9.956;2023-08-08T10:51:36;5.43;;;1.70;;
12597;SDS011;6364;53.590;9.956;2023-08-08T10:54:11;7.45;;;1.70;;
12597;SDS011;6364;53.590;9.956;2023-08-08T10:56:39;4.53;;;1.65;;
12597;SDS011;6364;53.590;9.956;2023-08-08T10:59:17;3.85;;;1.58;;
12597;SDS011;6364;53.590;9.956;2023-08-08T11:01:45;4.07;;;1.40;;
12597;SDS011;6364;53.590;9.956;2023-08-08T11:04:11;3.25;;;1.65;;
12597;SDS011;6364;53.590;9.956;2023-08-08T11:06:37;3.97;;;1.33;;
12597;SDS011;6364;53.590;9.956;2023-08-08T11:09:05;3.08;;;1.33;;
12597;SDS011;6364;53.590;9.956;2023-08-08T11:11:38;6.38;;;1.75;;
12597;SDS011;6364;53.590;9.956;2023-08-08T11:16:43;4.18;;;1.80;;
12597;SDS011;6364;53.590;9.956;2023-08-08T11:19:10;3.75;;;1.77;;
12597;SDS011;6364;53.590;9.956;2023-08-08T11:21:37;3.33;;;1.33;;
12597;SDS011;6364;53.590;9.956;2023-08-08T11:24:04;3.20;;;1.20;;
12597;SDS011;6364;53.590;9.956;2023-08-08T11:26:31;5.22;;;1.50;;
12597;SDS011;6364;53.590;9.956;2023-08-08T11:28:58;4.82;;;1.27;;
12597;SDS011;6364;53.590;9.956;2023-08-08T11:31:24;4.68;;;1.13;;
12597;SDS011;6364;53.590;9.956;2023-08-08T11:33:50;5.05;;;1.35;;
12597;SDS011;6364;53.590;9.956;2023-08-08T11:36:15;3.42;;;1.42;;
12597;SDS011;6364;53.590;9.956;2023-08-08T11:38:41;3.20;;;1.38;;
12597;SDS011;6364;53.590;9.956;2023-08-08T11:41:08;2.70;;;1.38;;
12597;SDS011;6364;53.590;9.956;2023-08-08T11:43:35;7.65;;;1.35;;
12597;SDS011;6364;53.590;9.956;2023-08-08T11:46:02;7.35;;;1.40;;
12597;SDS011;6364;53.590;9.956;2023-08-08T11:48:28;7.75;;;1.40;;
12597;SDS011;6364;53.590;9.956;2023-08-08T11:50:53;5.63;;;1.58;;
12597;SDS011;6364;53.590;9.956;2023-08-08T11:53:19;3.95;;;1.30;;
12597;SDS011;6364;53.590;9.956;2023-08-08T11:55:45;6.85;;;1.58;;
12597;SDS011;6364;53.590;9.956;2023-08-08T11:58:14;3.33;;;1.58;;
12597;SDS011;6364;53.590;9.956;2023-08-08T12:00:39;3.70;;;1.40;;
12597;SDS011;6364;53.590;9.956;2023-08-08T12:03:08;5.30;;;1.38;;
12597;SDS011;6364;53.590;9.956;2023-08-08T12:05:37;5.25;;;1.50;;
12597;SDS011;6364;53.590;9.956;2023-08-08T12:08:05;6.68;;;1.70;;
12597;SDS011;6364;53.590;9.956;2023-08-08T12:10:31;7.40;;;1.65;;
12597;SDS011;6364;53.590;9.956;2023-08-08T12:12:58;4.50;;;1.55;;
12597;SDS011;6364;53.590;9.956;2023-08-08T12:15:42;8.45;;;2.05;;
12597;SDS011;6364;53.590;9.956;2023-08-08T12:18:08;3.65;;;1.23;;
12597;SDS011;6364;53.590;9.956;2023-08-08T12:20:33;5.72;;;1.52;;
12597;SDS011;6364;53.590;9.956;2023-08-08T12:22:59;5.78;;;1.63;;
12597;SDS011;6364;53.590;9.956;2023-08-08T12:25:24;4.78;;;1.60;;
12597;SDS011;6364;53.590;9.956;2023-08-08T12:27:49;6.57;;;1.52;;
12597;SDS011;6364;53.590;9.956;2023-08-08T12:30:15;4.68;;;1.38;;
12597;SDS011;6364;53.590;9.956;2023-08-08T12:32:40;6.47;;;1.48;;
12597;SDS011;6364;53.590;9.956;2023-08-08T12:35:06;4.03;;;1.30;;
12597;SDS011;6364;53.590;9.956;2023-08-08T12:37:32;4.35;;;1.38;;
12597;SDS011;6364;53.590;9.956;2023-08-08T12:39:58;6.40;;;1.60;;
12597;SDS011;6364;53.590;9.956;2023-08-08T12:42:23;4.47;;;1.35;;
12597;SDS011;6364;53.590;9.956;2023-08-08T12:44:49;5.53;;;1.63;;
12597;SDS011;6364;53.590;9.956;2023-08-08T12:47:17;7.30;;;1.40;;
12597;SDS011;6364;53.590;9.956;2023-08-08T12:49:43;5.47;;;1.63;;
12597;SDS011;6364;53.590;9.956;2023-08-08T12:52:09;4.00;;;1.50;;
12597;SDS011;6364;53.590;9.956;2023-08-08T12:54:34;6.63;;;1.20;;
12597;SDS011;6364;53.590;9.956;2023-08-08T12:57:01;4.60;;;1.33;;
12597;SDS011;6364;53.590;9.956;2023-08-08T12:59:26;6.55;;;1.40;;
12597;SDS011;6364;53.590;9.956;2023-08-08T13:01:52;5.05;;;1.42;;
12597;SDS011;6364;53.590;9.956;2023-08-08T13:04:17;7.68;;;2.67;;
12597;SDS011;6364;53.590;9.956;2023-08-08T13:06:43;5.90;;;1.83;;
12597;SDS011;6364;53.590;9.956;2023-08-08T13:09:09;7.43;;;1.75;;
12597;SDS011;6364;53.590;9.956;2023-08-08T13:11:34;8.70;;;1.80;;
12597;SDS011;6364;53.590;9.956;2023-08-08T13:14:00;7.93;;;1.80;;
12597;SDS011;6364;53.590;9.956;2023-08-08T13:16:26;8.27;;;1.80;;
12597;SDS011;6364;53.590;9.956;2023-08-08T13:18:51;6.85;;;1.88;;
12597;SDS011;6364;53.590;9.956;2023-08-08T13:21:16;6.38;;;1.83;;
12597;SDS011;6364;53.590;9.956;2023-08-08T13:23:42;10.70;;;2.10;;
12597;SDS011;6364;53.590;9.956;2023-08-08T13:26:07;8.52;;;1.90;;
12597;SDS011;6364;53.590;9.956;2023-08-08T13:28:33;7.97;;;1.92;;
12597;SDS011;6364;53.590;9.956;2023-08-08T13:30:58;7.22;;;2.05;;
12597;SDS011;6364;53.590;9.956;2023-08-08T13:33:24;5.53;;;1.80;;
12597;SDS011;6364;53.590;9.956;2023-08-08T13:35:49;12.40;;;2.08;;
12597;SDS011;6364;53.590;9.956;2023-08-08T13:38:14;5.13;;;1.67;;
12597;SDS011;6364;53.590;9.956;2023-08-08T13:40:43;9.23;;;2.03;;
12597;SDS011;6364;53.590;9.956;2023-08-08T13:43:09;7.38;;;2.05;;
12597;SDS011;6364;53.590;9.956;2023-08-08T13:45:34;6.88;;;1.88;;
12597;SDS011;6364;53.590;9.956;2023-08-08T13:48:00;4.85;;;2.00;;
12597;SDS011;6364;53.590;9.956;2023-08-08T13:50:25;7.40;;;2.15;;
12597;SDS011;6364;53.590;9.956;2023-08-08T13:52:51;6.88;;;1.50;;
12597;SDS011;6364;53.590;9.956;2023-08-08T13:55:20;4.97;;;1.60;;
12597;SDS011;6364;53.590;9.956;2023-08-08T13:57:45;5.10;;;1.75;;
12597;SDS011;6364;53.590;9.956;2023-08-08T14:00:11;5.95;;;1.60;;
12597;SDS011;6364;53.590;9.956;2023-08-08T14:02:38;5.78;;;1.60;;
12597;SDS011;6364;53.590;9.956;2023-08-08T14:05:03;4.38;;;1.52;;
12597;SDS011;6364;53.590;9.956;2023-08-08T14:07:31;4.13;;;1.45;;
12597;SDS011;6364;53.590;9.956;2023-08-08T14:09:58;6.13;;;1.38;;
12597;SDS011;6364;53.590;9.956;2023-08-08T14:12:23;10.77;;;2.03;;
12597;SDS011;6364;53.590;9.956;2023-08-08T14:14:49;7.13;;;1.65;;
12597;SDS011;6364;53.590;9.956;2023-08-08T14:17:14;6.32;;;1.50;;
12597;SDS011;6364;53.590;9.956;2023-08-08T14:19:39;4.70;;;2.28;;
12597;SDS011;6364;53.590;9.956;2023-08-08T14:22:05;8.30;;;1.58;;
12597;SDS011;6364;53.590;9.956;2023-08-08T14:24:30;6.43;;;1.63;;
12597;SDS011;6364;53.590;9.956;2023-08-08T14:26:56;7.63;;;2.05;;
12597;SDS011;6364;53.590;9.956;2023-08-08T14:29:21;9.43;;;2.00;;
12597;SDS011;6364;53.590;9.956;2023-08-08T14:31:46;8.98;;;1.50;;
12597;SDS011;6364;53.590;9.956;2023-08-08T14:34:12;7.85;;;2.13;;
12597;SDS011;6364;53.590;9.956;2023-08-08T14:36:37;6.00;;;1.65;;
12597;SDS011;6364;53.590;9.956;2023-08-08T14:39:02;9.25;;;1.70;;
12597;SDS011;6364;53.590;9.956;2023-08-08T14:41:28;5.45;;;1.50;;
12597;SDS011;6364;53.590;9.956;2023-08-08T14:43:53;8.48;;;1.80;;
12597;SDS011;6364;53.590;9.956;2023-08-08T14:46:20;6.32;;;1.73;;
12597;SDS011;6364;53.590;9.956;2023-08-08T14:48:45;6.47;;;1.27;;
12597;SDS011;6364;53.590;9.956;2023-08-08T14:51:11;6.72;;;1.80;;
12597;SDS011;6364;53.590;9.956;2023-08-08T14:53:39;9.80;;;1.92;;
12597;SDS011;6364;53.590;9.956;2023-08-08T14:56:05;4.03;;;1.30;;
12597;SDS011;6364;53.590;9.956;2023-08-08T14:58:30;5.00;;;1.80;;
12597;SDS011;6364;53.590;9.956;2023-08-08T15:00:55;5.78;;;1.35;;
12597;SDS011;6364;53.590;9.956;2023-08-08T15:03:21;9.02;;;1.75;;
12597;SDS011;6364;53.590;9.956;2023-08-08T15:05:46;6.13;;;1.50;;
12597;SDS011;6364;53.590;9.956;2023-08-08T15:08:13;7.15;;;1.75;;
12597;SDS011;6364;53.590;9.956;2023-08-08T15:10:39;6.75;;;1.73;;
12597;SDS011;6364;53.590;9.956;2023-08-08T15:13:04;4.45;;;1.33;;
12597;SDS011;6364;53.590;9.956;2023-08-08T15:15:29;7.40;;;1.77;;
12597;SDS011;6364;53.590;9.956;2023-08-08T15:17:55;6.65;;;1.30;;
12597;SDS011;6364;53.590;9.956;2023-08-08T15:20:20;6.38;;;1.35;;